This is the latest recevied weather packets stored in our database for station/object KG7MRB. If no packets are shown the sender has not sent any weather packets the latest 10 day(s).
| Time | Temp. | Humidity | Pressure | Rain* | Wind** | Luminosity | Snow |
|---|---|---|---|---|---|---|---|
| 1777484377 | 15.56° C | 60% | 1043.3 hPa | 0 mm | - | 539 W/m² | - |
| 1777484073 | 15.56° C | 61% | 1043.2 hPa | 0 mm | - | 530 W/m² | - |
| 1777482858 | 15° C | 62% | 1043.4 hPa | 0 mm | - | 490 W/m² | - |
| 1777482251 | 14.44° C | 64% | 1043.6 hPa | 0 mm | - | 466 W/m² | - |
| 1777481646 | 14.44° C | 65% | 1043.5 hPa | 0 mm | - | 443 W/m² | - |
| 1777481343 | 14.44° C | 70% | 1043.6 hPa | 0 mm | - | 432 W/m² | - |
| 1777480735 | 13.89° C | 72% | 1043.8 hPa | 0 mm | - | 406 W/m² | - |
| 1777480432 | 13.89° C | 71% | 1043.7 hPa | 0 mm | - | 395 W/m² | - |
| 1777480128 | 12.78° C | 74% | 1043.7 hPa | 0 mm | - | 383 W/m² | - |
| 1777479825 | 12.78° C | 76% | 1043.6 hPa | 0 mm | - | 369 W/m² | - |
| 1777479522 | 12.22° C | 77% | 1043.7 hPa | 0 mm | - | 356 W/m² | - |
| 1777479219 | 12.22° C | 80% | 1043.8 hPa | 0 mm | - | 345 W/m² | - |
| 1777478916 | 11.67° C | 81% | 1044.1 hPa | 0 mm | - | 331 W/m² | - |
| 1777478612 | 11.67° C | 82% | 1044.1 hPa | 0 mm | - | 318 W/m² | - |
| 1777478006 | 11.11° C | 84% | 1044 hPa | 0 mm | - | 292 W/m² | - |
| 1777477701 | 10° C | 89% | 1044.1 hPa | 0 mm | - | 278 W/m² | - |
| 1777476792 | 8.89° C | 92% | 1044.3 hPa | 0 mm | - | 205 W/m² | - |
| 1777476489 | 8.33° C | 97% | 1044.3 hPa | 0 mm | - | 179 W/m² | - |
| 1777475274 | 6.11° C | 99% | 1044.6 hPa | 0 mm | - | 43 W/m² | - |
| 1777474665 | 6.11° C | 99% | 1044.4 hPa | 0 mm | - | 41 W/m² | - |
| 1777473453 | 6.11° C | 99% | 1044.4 hPa | 0 mm | - | 38 W/m² | - |
| 1777471935 | 6.11° C | 99% | 1044.3 hPa | 0 mm | - | 33 W/m² | - |
| 1777471632 | 6.11° C | 99% | 1044.3 hPa | 0 mm | - | 32 W/m² | - |
| 1777469810 | 6.67° C | 97% | 1044.2 hPa | 0 mm | - | 23 W/m² | - |
| 1777469505 | 7.22° C | 97% | 1044.2 hPa | 0 mm | - | 23 W/m² | - |
* Rain latest hour (hover to see other rain measurements)
** Current wind speed in m/s (hover to see current wind gust speed)